sensor_id;sensor_type;location;lat;lon;timestamp;pressure;altitude;pressure_sealevel;temperature;humidity
55171;BME280;41060;47.510;8.680;2023-09-07T00:01:34;97297.34;;;25.06;42.68
55171;BME280;41060;47.510;8.680;2023-09-07T00:04:01;97300.00;;;24.92;43.17
55171;BME280;41060;47.510;8.680;2023-09-07T00:06:29;97298.78;;;24.88;43.27
55171;BME280;41060;47.510;8.680;2023-09-07T00:08:56;97302.13;;;24.90;43.30
55171;BME280;41060;47.510;8.680;2023-09-07T00:11:22;97297.75;;;24.83;43.13
55171;BME280;41060;47.510;8.680;2023-09-07T00:13:49;97299.81;;;24.81;43.02
55171;BME280;41060;47.510;8.680;2023-09-07T00:16:18;97305.22;;;24.87;42.98
55171;BME280;41060;47.510;8.680;2023-09-07T00:18:46;97300.25;;;24.91;42.69
55171;BME280;41060;47.510;8.680;2023-09-07T00:21:16;97298.97;;;24.93;42.86
55171;BME280;41060;47.510;8.680;2023-09-07T00:23:42;97299.41;;;24.97;43.05
55171;BME280;41060;47.510;8.680;2023-09-07T00:26:09;97307.31;;;24.99;42.88
55171;BME280;41060;47.510;8.680;2023-09-07T00:28:38;97294.19;;;24.89;43.14
55171;BME280;41060;47.510;8.680;2023-09-07T00:31:04;97297.94;;;24.75;43.27
55171;BME280;41060;47.510;8.680;2023-09-07T00:33:31;97301.28;;;24.77;43.34
55171;BME280;41060;47.510;8.680;2023-09-07T00:36:01;97299.59;;;24.76;43.22
55171;BME280;41060;47.510;8.680;2023-09-07T00:38:28;97304.19;;;24.82;43.13
55171;BME280;41060;47.510;8.680;2023-09-07T00:40:54;97300.84;;;24.86;43.03
55171;BME280;41060;47.510;8.680;2023-09-07T00:43:21;97302.31;;;24.82;42.70
55171;BME280;41060;47.510;8.680;2023-09-07T00:45:48;97307.09;;;24.80;42.64
55171;BME280;41060;47.510;8.680;2023-09-07T00:48:15;97307.09;;;24.80;42.70
55171;BME280;41060;47.510;8.680;2023-09-07T00:50:43;97298.34;;;24.72;43.25
55171;BME280;41060;47.510;8.680;2023-09-07T00:53:11;97308.34;;;24.71;42.91
55171;BME280;41060;47.510;8.680;2023-09-07T00:55:38;97295.84;;;24.70;42.89
55171;BME280;41060;47.510;8.680;2023-09-07T00:58:05;97301.88;;;24.79;43.17
55171;BME280;41060;47.510;8.680;2023-09-07T01:00:32;97305.44;;;24.86;42.55
55171;BME280;41060;47.510;8.680;2023-09-07T01:03:00;97299.59;;;24.82;43.09
55171;BME280;41060;47.510;8.680;2023-09-07T01:05:34;97302.13;;;24.84;42.96
55171;BME280;41060;47.510;8.680;2023-09-07T01:08:07;97297.94;;;24.88;42.54
55171;BME280;41060;47.510;8.680;2023-09-07T01:10:38;97300.84;;;24.86;42.57
55171;BME280;41060;47.510;8.680;2023-09-07T01:13:05;97276.47;;;24.73;42.43
55171;BME280;41060;47.510;8.680;2023-09-07T01:15:31;97302.06;;;24.71;42.56
55171;BME280;41060;47.510;8.680;2023-09-07T01:17:58;97299.81;;;24.68;42.71
55171;BME280;41060;47.510;8.680;2023-09-07T01:20:25;97269.19;;;24.61;42.70
55171;BME280;41060;47.510;8.680;2023-09-07T01:22:54;97289.81;;;24.68;42.72
55171;BME280;41060;47.510;8.680;2023-09-07T01:25:21;97294.78;;;24.65;42.88
55171;BME280;41060;47.510;8.680;2023-09-07T01:27:50;97293.75;;;24.52;42.92
55171;BME280;41060;47.510;8.680;2023-09-07T01:30:17;97286.03;;;24.56;43.37
55171;BME280;41060;47.510;8.680;2023-09-07T01:32:45;97294.38;;;24.61;43.05
55171;BME280;41060;47.510;8.680;2023-09-07T01:35:13;97294.59;;;24.60;43.02
55171;BME280;41060;47.510;8.680;2023-09-07T01:37:42;97290.22;;;24.65;42.66
55171;BME280;41060;47.510;8.680;2023-09-07T01:40:11;97294.16;;;24.63;42.54
55171;BME280;41060;47.510;8.680;2023-09-07T01:42:37;97284.59;;;24.67;42.54
55171;BME280;41060;47.510;8.680;2023-09-07T01:45:04;97292.50;;;24.62;42.47
55171;BME280;41060;47.510;8.680;2023-09-07T01:47:32;97284.59;;;24.53;42.33
55171;BME280;41060;47.510;8.680;2023-09-07T01:49:58;97290.22;;;24.59;42.38
55171;BME280;41060;47.510;8.680;2023-09-07T01:52:24;97290.63;;;24.62;42.76
55171;BME280;41060;47.510;8.680;2023-09-07T01:54:52;97292.72;;;24.67;42.70
55171;BME280;41060;47.510;8.680;2023-09-07T01:57:19;97291.03;;;24.59;42.42
55171;BME280;41060;47.510;8.680;2023-09-07T01:59:48;97287.69;;;24.57;42.43
55171;BME280;41060;47.510;8.680;2023-09-07T02:02:15;97281.06;;;24.60;42.62
55171;BME280;41060;47.510;8.680;2023-09-07T02:04:42;97289.38;;;24.58;42.55
55171;BME280;41060;47.510;8.680;2023-09-07T02:07:11;97295.41;;;24.53;42.57
55171;BME280;41060;47.510;8.680;2023-09-07T02:09:38;97294.56;;;24.46;42.48
55171;BME280;41060;47.510;8.680;2023-09-07T02:12:05;97303.88;;;24.31;42.65
55171;BME280;41060;47.510;8.680;2023-09-07T02:14:33;97289.88;;;24.21;42.85
55171;BME280;41060;47.510;8.680;2023-09-07T02:17:03;97295.28;;;24.21;42.61
55171;BME280;41060;47.510;8.680;2023-09-07T02:19:29;97296.34;;;24.26;42.89
55171;BME280;41060;47.510;8.680;2023-09-07T02:21:56;97297.00;;;24.35;42.31
55171;BME280;41060;47.510;8.680;2023-09-07T02:24:23;97297.03;;;24.41;42.50
55171;BME280;41060;47.510;8.680;2023-09-07T02:26:49;97295.38;;;24.40;41.88
55171;BME280;41060;47.510;8.680;2023-09-07T02:29:16;97292.00;;;24.32;41.92
55171;BME280;41060;47.510;8.680;2023-09-07T02:31:44;97293.00;;;24.17;42.28
55171;BME280;41060;47.510;8.680;2023-09-07T02:34:11;97298.00;;;24.21;42.05
55171;BME280;41060;47.510;8.680;2023-09-07T02:36:37;97304.03;;;24.16;42.25
55171;BME280;41060;47.510;8.680;2023-09-07T02:39:04;97304.03;;;24.23;42.46
55171;BME280;41060;47.510;8.680;2023-09-07T02:41:33;97306.13;;;24.27;42.34
55171;BME280;41060;47.510;8.680;2023-09-07T02:44:02;97308.63;;;24.29;42.78
55171;BME280;41060;47.510;8.680;2023-09-07T02:46:29;97314.06;;;24.29;42.65
55171;BME280;41060;47.510;8.680;2023-09-07T02:48:57;97315.09;;;24.28;42.69
55171;BME280;41060;47.510;8.680;2023-09-07T02:51:24;97305.09;;;24.28;42.78
55171;BME280;41060;47.510;8.680;2023-09-07T02:53:51;97306.78;;;24.29;42.84
55171;BME280;41060;47.510;8.680;2023-09-07T02:56:17;97302.81;;;24.32;42.78
55171;BME280;41060;47.510;8.680;2023-09-07T02:58:44;97304.25;;;24.28;42.79
55171;BME280;41060;47.510;8.680;2023-09-07T03:01:12;97308.19;;;24.18;42.92
55171;BME280;41060;47.510;8.680;2023-09-07T03:03:39;97279.38;;;23.91;43.04
55171;BME280;41060;47.510;8.680;2023-09-07T03:06:10;97302.53;;;24.07;43.27
55171;BME280;41060;47.510;8.680;2023-09-07T03:08:39;97298.16;;;24.06;42.74
55171;BME280;41060;47.510;8.680;2023-09-07T03:11:06;97294.03;;;24.10;43.14
55171;BME280;41060;47.510;8.680;2023-09-07T03:13:33;97301.50;;;24.08;42.84
55171;BME280;41060;47.510;8.680;2023-09-07T03:16:02;97296.06;;;24.01;43.07
55171;BME280;41060;47.510;8.680;2023-09-07T03:18:28;97296.88;;;23.95;42.73
55171;BME280;41060;47.510;8.680;2023-09-07T03:20:57;97256.56;;;23.66;43.15
55171;BME280;41060;47.510;8.680;2023-09-07T03:23:26;97299.13;;;23.85;43.15
55171;BME280;41060;47.510;8.680;2023-09-07T03:25:53;97304.94;;;23.89;43.27
55171;BME280;41060;47.510;8.680;2023-09-07T03:28:20;97301.00;;;23.91;43.00
55171;BME280;41060;47.510;8.680;2023-09-07T03:30:47;97299.34;;;23.90;43.04
55171;BME280;41060;47.510;8.680;2023-09-07T03:33:13;97303.66;;;23.78;43.23
55171;BME280;41060;47.510;8.680;2023-09-07T03:35:40;97299.03;;;23.72;43.14
55171;BME280;41060;47.510;8.680;2023-09-07T03:38:07;97307.91;;;23.66;42.99
55171;BME280;41060;47.510;8.680;2023-09-07T03:40:35;97306.84;;;23.60;43.52
55171;BME280;41060;47.510;8.680;2023-09-07T03:43:02;97312.50;;;23.65;42.81
55171;BME280;41060;47.510;8.680;2023-09-07T03:45:29;97309.16;;;23.63;43.04
55171;BME280;41060;47.510;8.680;2023-09-07T03:47:55;97306.47;;;23.63;42.77
55171;BME280;41060;47.510;8.680;2023-09-07T03:50:22;97302.94;;;23.63;43.30
55171;BME280;41060;47.510;8.680;2023-09-07T03:52:49;97303.28;;;23.53;43.12
55171;BME280;41060;47.510;8.680;2023-09-07T03:55:16;97298.47;;;23.49;43.63
55171;BME280;41060;47.510;8.680;2023-09-07T03:57:45;97307.22;;;23.51;43.33
55171;BME280;41060;47.510;8.680;2023-09-07T04:00:16;97299.50;;;23.48;43.01
55171;BME280;41060;47.510;8.680;2023-09-07T04:02:44;97299.91;;;23.45;43.46
55171;BME280;41060;47.510;8.680;2023-09-07T04:05:10;97297.34;;;23.36;43.79
55171;BME280;41060;47.510;8.680;2023-09-07T04:07:37;97297.56;;;23.35;43.32
55171;BME280;41060;47.510;8.680;2023-09-07T04:10:04;97298.94;;;23.24;43.08
55171;BME280;41060;47.510;8.680;2023-09-07T04:12:31;97303.06;;;23.20;43.39
55171;BME280;41060;47.510;8.680;2023-09-07T04:15:01;97310.97;;;23.22;42.84
55171;BME280;41060;47.510;8.680;2023-09-07T04:17:28;97309.50;;;23.19;42.85
55171;BME280;41060;47.510;8.680;2023-09-07T04:19:55;97308.47;;;23.20;43.35
55171;BME280;41060;47.510;8.680;2023-09-07T04:22:22;97313.06;;;23.20;43.61
55171;BME280;41060;47.510;8.680;2023-09-07T04:24:52;97311.59;;;23.24;43.44
55171;BME280;41060;47.510;8.680;2023-09-07T04:27:18;97308.13;;;23.30;43.09
55171;BME280;41060;47.510;8.680;2023-09-07T04:29:47;97314.75;;;23.27;43.11
55171;BME280;41060;47.510;8.680;2023-09-07T04:32:16;97308.91;;;23.24;43.17
55171;BME280;41060;47.510;8.680;2023-09-07T04:34:42;97314.72;;;23.21;43.46
55171;BME280;41060;47.510;8.680;2023-09-07T04:37:10;97308.69;;;23.19;43.42
55171;BME280;41060;47.510;8.680;2023-09-07T04:39:38;97314.25;;;23.17;43.85
55171;BME280;41060;47.510;8.680;2023-09-07T04:42:05;97313.84;;;23.14;44.22
55171;BME280;41060;47.510;8.680;2023-09-07T04:44:32;97312.53;;;23.10;44.57
55171;BME280;41060;47.510;8.680;2023-09-07T04:46:59;97302.44;;;22.97;44.64
55171;BME280;41060;47.510;8.680;2023-09-07T04:49:26;97316.59;;;22.99;44.86
55171;BME280;41060;47.510;8.680;2023-09-07T04:51:53;97317.75;;;22.90;44.79
55171;BME280;41060;47.510;8.680;2023-09-07T04:54:20;97316.50;;;22.92;45.06
55171;BME280;41060;47.510;8.680;2023-09-07T04:56:47;97319.31;;;22.99;44.85
55171;BME280;41060;47.510;8.680;2023-09-07T04:59:14;97322.63;;;23.01;44.16
55171;BME280;41060;47.510;8.680;2023-09-07T05:01:41;97318.06;;;23.01;44.24
55171;BME280;41060;47.510;8.680;2023-09-07T05:04:07;97322.81;;;22.99;44.49
55171;BME280;41060;47.510;8.680;2023-09-07T05:06:38;97334.47;;;22.79;44.63
55171;BME280;41060;47.510;8.680;2023-09-07T05:09:07;97328.75;;;22.67;45.35
55171;BME280;41060;47.510;8.680;2023-09-07T05:11:34;97335.00;;;22.68;45.39
55171;BME280;41060;47.510;8.680;2023-09-07T05:14:01;97323.31;;;22.60;44.47
55171;BME280;41060;47.510;8.680;2023-09-07T05:16:27;97331.78;;;22.57;45.07
55171;BME280;41060;47.510;8.680;2023-09-07T05:18:54;97330.09;;;22.56;45.27
55171;BME280;41060;47.510;8.680;2023-09-07T05:21:21;97336.97;;;22.59;45.21
55171;BME280;41060;47.510;8.680;2023-09-07T05:23:49;97322.91;;;22.63;45.12
55171;BME280;41060;47.510;8.680;2023-09-07T05:26:21;97332.13;;;22.69;45.06
55171;BME280;41060;47.510;8.680;2023-09-07T05:28:49;97339.09;;;22.63;45.03
55171;BME280;41060;47.510;8.680;2023-09-07T05:31:16;97333.13;;;22.68;45.23
55171;BME280;41060;47.510;8.680;2023-09-07T05:33:42;97341.09;;;22.76;45.06
55171;BME280;41060;47.510;8.680;2023-09-07T05:36:09;97334.94;;;22.82;44.76
55171;BME280;41060;47.510;8.680;2023-09-07T05:38:36;97344.75;;;22.90;44.70
55171;BME280;41060;47.510;8.680;2023-09-07T05:41:04;97339.59;;;22.95;44.34
55171;BME280;41060;47.510;8.680;2023-09-07T05:43:30;97342.50;;;22.93;44.47
55171;BME280;41060;47.510;8.680;2023-09-07T05:45:59;97346.03;;;22.94;44.41
55171;BME280;41060;47.510;8.680;2023-09-07T05:48:26;97348.34;;;22.97;44.33
55171;BME280;41060;47.510;8.680;2023-09-07T05:50:52;97346.09;;;23.00;44.70
55171;BME280;41060;47.510;8.680;2023-09-07T05:53:20;97340.50;;;23.02;44.50
55171;BME280;41060;47.510;8.680;2023-09-07T05:55:46;97348.41;;;23.03;44.59
55171;BME280;41060;47.510;8.680;2023-09-07T05:58:14;97354.47;;;23.06;44.61
55171;BME280;41060;47.510;8.680;2023-09-07T06:00:41;97346.09;;;23.00;44.63
55171;BME280;41060;47.510;8.680;2023-09-07T06:03:08;97355.03;;;23.01;44.91
55171;BME280;41060;47.510;8.680;2023-09-07T06:05:35;97358.81;;;23.07;44.79
55171;BME280;41060;47.510;8.680;2023-09-07T06:08:05;97357.47;;;23.17;44.67
55171;BME280;41060;47.510;8.680;2023-09-07T06:10:32;97352.97;;;23.24;44.43
55171;BME280;41060;47.510;8.680;2023-09-07T06:12:59;97363.41;;;23.27;44.71
55171;BME280;41060;47.510;8.680;2023-09-07T06:15:29;97349.44;;;23.24;44.51
55171;BME280;41060;47.510;8.680;2023-09-07T06:17:56;97355.34;;;23.34;44.33
55171;BME280;41060;47.510;8.680;2023-09-07T06:20:22;97361.84;;;23.46;44.45
55171;BME280;41060;47.510;8.680;2023-09-07T06:22:49;97357.09;;;23.48;44.09
55171;BME280;41060;47.510;8.680;2023-09-07T06:25:16;97353.78;;;23.53;44.17
55171;BME280;41060;47.510;8.680;2023-09-07T06:27:42;97356.09;;;23.56;44.60
55171;BME280;41060;47.510;8.680;2023-09-07T06:30:10;97355.28;;;23.55;44.50
55171;BME280;41060;47.510;8.680;2023-09-07T06:32:38;97355.22;;;23.49;44.88
55171;BME280;41060;47.510;8.680;2023-09-07T06:35:06;97352.53;;;23.21;45.83
55171;BME280;41060;47.510;8.680;2023-09-07T06:37:33;97364.09;;;22.93;46.44
55171;BME280;41060;47.510;8.680;2023-09-07T06:40:01;97355.34;;;22.70;46.70
55171;BME280;41060;47.510;8.680;2023-09-07T06:42:29;97359.41;;;22.59;47.23
55171;BME280;41060;47.510;8.680;2023-09-07T06:44:56;97360.81;;;22.55;47.14
55171;BME280;41060;47.510;8.680;2023-09-07T06:47:23;97358.22;;;22.47;47.38
55171;BME280;41060;47.510;8.680;2023-09-07T06:49:51;97364.72;;;22.17;48.56
55171;BME280;41060;47.510;8.680;2023-09-07T06:52:18;97365.84;;;21.93;49.63
55171;BME280;41060;47.510;8.680;2023-09-07T06:54:44;97364.09;;;21.71;50.36
55171;BME280;41060;47.510;8.680;2023-09-07T06:57:11;97360.72;;;21.69;50.39
55171;BME280;41060;47.510;8.680;2023-09-07T06:59:38;97365.16;;;21.47;51.26
55171;BME280;41060;47.510;8.680;2023-09-07T07:02:05;97359.13;;;21.60;50.87
55171;BME280;41060;47.510;8.680;2023-09-07T07:04:31;97367.97;;;21.68;50.58
55171;BME280;41060;47.510;8.680;2023-09-07T07:07:00;97362.47;;;21.62;51.19
55171;BME280;41060;47.510;8.680;2023-09-07T07:09:29;97358.78;;;21.63;51.56
55171;BME280;41060;47.510;8.680;2023-09-07T07:11:56;97358.69;;;21.85;51.09
55171;BME280;41060;47.510;8.680;2023-09-07T07:14:23;97360.25;;;22.09;50.54
55171;BME280;41060;47.510;8.680;2023-09-07T07:16:49;97367.09;;;22.26;49.74
55171;BME280;41060;47.510;8.680;2023-09-07T07:19:16;97364.47;;;22.48;49.54
55171;BME280;41060;47.510;8.680;2023-09-07T07:21:43;97368.28;;;22.53;48.82
55171;BME280;41060;47.510;8.680;2023-09-07T07:24:11;97367.28;;;22.25;49.41
55171;BME280;41060;47.510;8.680;2023-09-07T07:26:39;97369.91;;;22.18;49.82
55171;BME280;41060;47.510;8.680;2023-09-07T07:29:06;97366.84;;;22.21;49.99
55171;BME280;41060;47.510;8.680;2023-09-07T07:31:35;97369.19;;;22.10;49.90
55171;BME280;41060;47.510;8.680;2023-09-07T07:34:01;97369.38;;;22.08;50.18
55171;BME280;41060;47.510;8.680;2023-09-07T07:36:29;97371.22;;;22.08;50.15
55171;BME280;41060;47.510;8.680;2023-09-07T07:38:56;97366.53;;;22.31;50.20
55171;BME280;41060;47.510;8.680;2023-09-07T07:41:24;97362.16;;;22.45;49.50
55171;BME280;41060;47.510;8.680;2023-09-07T07:43:51;97364.75;;;22.53;49.45
55171;BME280;41060;47.510;8.680;2023-09-07T07:46:17;97366.13;;;22.49;49.78
55171;BME280;41060;47.510;8.680;2023-09-07T07:48:45;97368.47;;;22.52;50.09
55171;BME280;41060;47.510;8.680;2023-09-07T07:51:12;97363.91;;;22.38;50.31
55171;BME280;41060;47.510;8.680;2023-09-07T07:53:38;97356.00;;;22.36;50.22
55171;BME280;41060;47.510;8.680;2023-09-07T07:56:05;97360.56;;;22.50;50.17
55171;BME280;41060;47.510;8.680;2023-09-07T07:58:35;97364.41;;;22.62;49.73
55171;BME280;41060;47.510;8.680;2023-09-07T08:01:02;97353.22;;;22.44;50.35
55171;BME280;41060;47.510;8.680;2023-09-07T08:03:28;97358.38;;;22.60;50.06
55171;BME280;41060;47.510;8.680;2023-09-07T08:05:58;97358.19;;;22.83;49.58
55171;BME280;41060;47.510;8.680;2023-09-07T08:08:24;97360.88;;;23.05;49.08
55171;BME280;41060;47.510;8.680;2023-09-07T08:10:51;97355.63;;;23.18;49.24
55171;BME280;41060;47.510;8.680;2023-09-07T08:13:18;97356.78;;;23.36;48.71
55171;BME280;41060;47.510;8.680;2023-09-07T08:15:46;97351.34;;;23.58;48.39
55171;BME280;41060;47.510;8.680;2023-09-07T08:18:14;97354.50;;;23.68;48.06
55171;BME280;41060;47.510;8.680;2023-09-07T08:20:41;97351.91;;;23.81;48.15
55171;BME280;41060;47.510;8.680;2023-09-07T08:23:07;97355.53;;;23.95;48.23
55171;BME280;41060;47.510;8.680;2023-09-07T08:25:35;97353.91;;;24.00;47.38
55171;BME280;41060;47.510;8.680;2023-09-07T08:28:05;97351.78;;;23.96;46.94
55171;BME280;41060;47.510;8.680;2023-09-07T08:30:32;97349.13;;;24.02;47.31
55171;BME280;41060;47.510;8.680;2023-09-07T08:33:00;97350.97;;;23.95;47.34
55171;BME280;41060;47.510;8.680;2023-09-07T08:35:28;97342.19;;;23.87;48.04
55171;BME280;41060;47.510;8.680;2023-09-07T08:37:55;97343.63;;;23.89;47.35
55171;BME280;41060;47.510;8.680;2023-09-07T08:40:23;97348.66;;;23.92;48.10
55171;BME280;41060;47.510;8.680;2023-09-07T08:42:53;97347.88;;;24.05;48.02
55171;BME280;41060;47.510;8.680;2023-09-07T08:45:21;97346.47;;;24.15;47.96
55171;BME280;41060;47.510;8.680;2023-09-07T08:47:49;97349.22;;;24.29;47.47
55171;BME280;41060;47.510;8.680;2023-09-07T08:50:18;97314.41;;;24.12;46.85
55171;BME280;41060;47.510;8.680;2023-09-07T08:52:45;97344.53;;;24.44;47.03
55171;BME280;41060;47.510;8.680;2023-09-07T08:55:12;97346.03;;;24.60;46.73
55171;BME280;41060;47.510;8.680;2023-09-07T08:57:40;97343.13;;;24.61;46.68
55171;BME280;41060;47.510;8.680;2023-09-07T09:00:07;97335.41;;;24.84;46.09
55171;BME280;41060;47.510;8.680;2023-09-07T09:02:39;97336.31;;;25.05;45.60
55171;BME280;41060;47.510;8.680;2023-09-07T09:05:08;97336.50;;;24.90;46.27
55171;BME280;41060;47.510;8.680;2023-09-07T09:07:37;97328.41;;;25.03;46.24
55171;BME280;41060;47.510;8.680;2023-09-07T09:10:05;97332.09;;;25.02;44.89
55171;BME280;41060;47.510;8.680;2023-09-07T09:12:31;97335.03;;;24.94;46.23
55171;BME280;41060;47.510;8.680;2023-09-07T09:14:59;97335.44;;;24.91;46.23
55171;BME280;41060;47.510;8.680;2023-09-07T09:17:26;97325.28;;;25.06;45.61
55171;BME280;41060;47.510;8.680;2023-09-07T09:19:52;97332.13;;;25.09;46.21
55171;BME280;41060;47.510;8.680;2023-09-07T09:22:19;97330.63;;;24.93;46.68
55171;BME280;41060;47.510;8.680;2023-09-07T09:24:48;97327.72;;;24.94;47.01
55171;BME280;41060;47.510;8.680;2023-09-07T09:27:17;97325.28;;;25.06;46.85
55171;BME280;41060;47.510;8.680;2023-09-07T09:29:44;97325.91;;;25.21;46.83
55171;BME280;41060;47.510;8.680;2023-09-07T09:32:13;97321.09;;;25.23;46.08
55171;BME280;41060;47.510;8.680;2023-09-07T09:34:43;97325.25;;;25.39;46.63
55171;BME280;41060;47.510;8.680;2023-09-07T09:37:13;97315.63;;;25.69;45.76
55171;BME280;41060;47.510;8.680;2023-09-07T09:39:41;97317.81;;;25.99;44.56
55171;BME280;41060;47.510;8.680;2023-09-07T09:42:10;97310.63;;;26.24;44.10
55171;BME280;41060;47.510;8.680;2023-09-07T09:44:38;97288.56;;;26.07;43.75
55171;BME280;41060;47.510;8.680;2023-09-07T09:47:08;97320.09;;;26.53;43.89
55171;BME280;41060;47.510;8.680;2023-09-07T09:49:34;97321.56;;;26.87;44.01
55171;BME280;41060;47.510;8.680;2023-09-07T09:52:02;97313.22;;;26.82;42.80
55171;BME280;41060;47.510;8.680;2023-09-07T09:54:32;97314.09;;;26.44;44.40
55171;BME280;41060;47.510;8.680;2023-09-07T09:57:01;97311.50;;;26.56;44.14
55171;BME280;41060;47.510;8.680;2023-09-07T09:59:29;97312.81;;;26.78;43.79
55171;BME280;41060;47.510;8.680;2023-09-07T10:01:56;97301.28;;;26.90;43.24
55171;BME280;41060;47.510;8.680;2023-09-07T10:04:23;97307.97;;;26.87;43.73
55171;BME280;41060;47.510;8.680;2023-09-07T10:06:54;97299.78;;;26.94;43.77
55171;BME280;41060;47.510;8.680;2023-09-07T10:09:21;97297.22;;;27.23;43.11
55171;BME280;41060;47.510;8.680;2023-09-07T10:11:52;97297.28;;;27.42;42.68
55171;BME280;41060;47.510;8.680;2023-09-07T10:14:20;97294.28;;;27.50;42.70
55171;BME280;41060;47.510;8.680;2023-09-07T10:16:49;97296.41;;;27.66;42.91
55171;BME280;41060;47.510;8.680;2023-09-07T10:19:19;97295.28;;;27.92;42.03
55171;BME280;41060;47.510;8.680;2023-09-07T10:21:45;97299.97;;;28.21;41.69
55171;BME280;41060;47.510;8.680;2023-09-07T10:24:23;97289.59;;;28.30;41.11
55171;BME280;41060;47.510;8.680;2023-09-07T10:27:01;97267.63;;;28.43;41.32
55171;BME280;41060;47.510;8.680;2023-09-07T10:29:28;97290.13;;;28.68;40.59
55171;BME280;41060;47.510;8.680;2023-09-07T10:32:04;97287.06;;;28.77;39.26
55171;BME280;41060;47.510;8.680;2023-09-07T10:34:35;97277.00;;;28.77;39.87
55171;BME280;41060;47.510;8.680;2023-09-07T10:37:03;97276.78;;;28.90;39.29
55171;BME280;41060;47.510;8.680;2023-09-07T10:39:31;97264.59;;;29.04;39.33
55171;BME280;41060;47.510;8.680;2023-09-07T10:41:58;97267.34;;;29.16;38.90
55171;BME280;41060;47.510;8.680;2023-09-07T10:44:25;97267.00;;;29.36;38.57
55171;BME280;41060;47.510;8.680;2023-09-07T10:46:52;97269.97;;;29.58;38.18
55171;BME280;41060;47.510;8.680;2023-09-07T10:49:24;97251.91;;;29.68;38.76
55171;BME280;41060;47.510;8.680;2023-09-07T10:51:51;97239.22;;;29.74;38.10
55171;BME280;41060;47.510;8.680;2023-09-07T10:54:22;97270.50;;;29.95;38.53
55171;BME280;41060;47.510;8.680;2023-09-07T10:56:51;97264.63;;;30.14;37.16
55171;BME280;41060;47.510;8.680;2023-09-07T10:59:18;97270.06;;;30.26;37.11
55171;BME280;41060;47.510;8.680;2023-09-07T11:01:44;97260.16;;;30.37;36.98
55171;BME280;41060;47.510;8.680;2023-09-07T11:04:12;97264.16;;;30.17;37.03
55171;BME280;41060;47.510;8.680;2023-09-07T11:06:40;97265.44;;;30.15;37.37
55171;BME280;41060;47.510;8.680;2023-09-07T11:09:08;97251.34;;;30.06;38.87
55171;BME280;41060;47.510;8.680;2023-09-07T11:11:36;97257.44;;;29.97;38.51
55171;BME280;41060;47.510;8.680;2023-09-07T11:14:03;97253.81;;;29.44;38.72
55171;BME280;41060;47.510;8.680;2023-09-07T11:16:30;97249.06;;;29.75;39.21
55171;BME280;41060;47.510;8.680;2023-09-07T11:18:57;97255.94;;;30.29;38.58
55171;BME280;41060;47.510;8.680;2023-09-07T11:21:28;97249.84;;;30.55;37.77
55171;BME280;41060;47.510;8.680;2023-09-07T11:23:58;97248.72;;;30.68;37.71
55171;BME280;41060;47.510;8.680;2023-09-07T11:26:25;97246.88;;;30.57;37.48
55171;BME280;41060;47.510;8.680;2023-09-07T11:28:51;97232.38;;;30.56;37.84
55171;BME280;41060;47.510;8.680;2023-09-07T11:31:18;97239.00;;;30.89;36.92
55171;BME280;41060;47.510;8.680;2023-09-07T11:33:49;97232.28;;;31.13;35.95
55171;BME280;41060;47.510;8.680;2023-09-07T11:36:16;97223.81;;;31.31;36.19
55171;BME280;41060;47.510;8.680;2023-09-07T11:38:43;97224.81;;;31.09;36.87
55171;BME280;41060;47.510;8.680;2023-09-07T11:41:12;97230.63;;;31.12;37.01
55171;BME280;41060;47.510;8.680;2023-09-07T11:43:39;97224.41;;;31.33;36.97
55171;BME280;41060;47.510;8.680;2023-09-07T11:46:07;97226.28;;;31.71;36.06
55171;BME280;41060;47.510;8.680;2023-09-07T11:48:37;97226.94;;;32.00;35.38
55171;BME280;41060;47.510;8.680;2023-09-07T11:51:03;97225.72;;;32.13;34.04
55171;BME280;41060;47.510;8.680;2023-09-07T11:53:30;97227.72;;;32.17;34.35
55171;BME280;41060;47.510;8.680;2023-09-07T11:55:57;97230.16;;;32.41;34.32
55171;BME280;41060;47.510;8.680;2023-09-07T11:58:25;97225.72;;;32.62;33.98
55171;BME280;41060;47.510;8.680;2023-09-07T12:00:53;97220.22;;;32.62;34.63
55171;BME280;41060;47.510;8.680;2023-09-07T12:03:20;97215.06;;;32.70;33.60
55171;BME280;41060;47.510;8.680;2023-09-07T12:05:47;97219.34;;;32.56;34.76
55171;BME280;41060;47.510;8.680;2023-09-07T12:08:14;97218.06;;;32.37;33.89
55171;BME280;41060;47.510;8.680;2023-09-07T12:10:41;97220.59;;;32.43;33.79
55171;BME280;41060;47.510;8.680;2023-09-07T12:13:07;97220.28;;;32.67;33.77
55171;BME280;41060;47.510;8.680;2023-09-07T12:15:35;97210.78;;;32.74;34.27
55171;BME280;41060;47.510;8.680;2023-09-07T12:18:05;97206.72;;;32.82;34.10
55171;BME280;41060;47.510;8.680;2023-09-07T12:20:32;97220.34;;;32.45;34.29
55171;BME280;41060;47.510;8.680;2023-09-07T12:23:00;97217.81;;;32.16;35.40
55171;BME280;41060;47.510;8.680;2023-09-07T12:25:28;97212.00;;;32.35;34.33
55171;BME280;41060;47.510;8.680;2023-09-07T12:27:54;97213.41;;;32.37;35.29
55171;BME280;41060;47.510;8.680;2023-09-07T12:30:22;97195.56;;;32.62;34.53
55171;BME280;41060;47.510;8.680;2023-09-07T12:32:51;97206.28;;;32.95;33.46
55171;BME280;41060;47.510;8.680;2023-09-07T12:35:17;97203.63;;;33.05;33.38
55171;BME280;41060;47.510;8.680;2023-09-07T12:37:51;97211.69;;;33.22;32.93
55171;BME280;41060;47.510;8.680;2023-09-07T12:40:17;97200.06;;;33.47;31.57
55171;BME280;41060;47.510;8.680;2023-09-07T12:42:44;97195.78;;;33.66;31.75
55171;BME280;41060;47.510;8.680;2023-09-07T12:45:12;97201.84;;;33.21;33.28
55171;BME280;41060;47.510;8.680;2023-09-07T12:47:40;97202.06;;;33.19;33.55
55171;BME280;41060;47.510;8.680;2023-09-07T12:50:09;97190.38;;;33.34;32.99
55171;BME280;41060;47.510;8.680;2023-09-07T12:52:36;97189.03;;;33.37;33.75
55171;BME280;41060;47.510;8.680;2023-09-07T12:55:04;97197.91;;;33.12;33.42
55171;BME280;41060;47.510;8.680;2023-09-07T12:57:31;97198.19;;;33.15;33.02
55171;BME280;41060;47.510;8.680;2023-09-07T13:00:00;97192.44;;;33.17;32.38
55171;BME280;41060;47.510;8.680;2023-09-07T13:02:26;97184.34;;;33.37;32.26